createdAt,value
2022-08-11T00:04:05.982Z,100345.91
2022-08-11T00:09:40.220Z,100340.66
2022-08-11T00:15:12.618Z,100334.72
2022-08-11T00:20:45.388Z,100346.84
2022-08-11T00:26:15.460Z,100355.16
2022-08-11T00:31:50.734Z,100353.41
2022-08-11T00:37:22.738Z,100345.22
2022-08-11T00:43:03.077Z,100358.38
2022-08-11T00:48:46.359Z,100355.75
2022-08-11T00:54:52.152Z,100348.50
2022-08-11T01:00:23.835Z,100355.88
2022-08-11T01:06:22.717Z,100349.94
2022-08-11T01:12:21.410Z,100346.50
2022-08-11T01:18:28.347Z,100334.13
2022-08-11T01:24:37.387Z,100330.63
2022-08-11T01:30:29.737Z,100327.13
2022-08-11T01:36:40.035Z,100324.25
2022-08-11T01:42:52.871Z,100336.13
2022-08-11T01:48:38.051Z,100323.44
2022-08-11T01:54:28.698Z,100331.72
2022-08-11T02:00:07.970Z,100337.88
2022-08-11T02:05:46.089Z,100343.50
2022-08-11T02:11:35.685Z,100337.28
2022-08-11T02:17:17.447Z,100342.31
2022-08-11T02:23:13.068Z,100347.63
2022-08-11T02:28:56.601Z,100335.44
2022-08-11T02:34:33.828Z,100355.31
2022-08-11T02:40:21.023Z,100348.34
2022-08-11T02:46:02.295Z,100362.50
2022-08-11T02:51:41.176Z,100381.84
2022-08-11T02:57:19.087Z,100362.69
2022-08-11T03:03:05.790Z,100359.63
2022-08-11T03:08:51.397Z,100371.75
2022-08-11T03:14:44.251Z,100377.13
2022-08-11T03:20:33.367Z,100378.00
2022-08-11T03:26:15.004Z,100383.75
2022-08-11T03:31:50.326Z,100383.38
2022-08-11T03:37:52.897Z,100388.94
2022-08-11T03:43:50.308Z,100382.97
2022-08-11T03:49:39.290Z,100391.75
2022-08-11T03:55:16.783Z,100387.03
2022-08-11T04:01:23.035Z,100384.38
2022-08-11T04:07:12.009Z,100380.09
2022-08-11T04:13:37.873Z,100382.88
2022-08-11T04:19:45.722Z,100396.09
2022-08-11T04:25:58.291Z,100395.09
2022-08-11T04:31:51.054Z,100392.06
2022-08-11T04:37:38.248Z,100384.28
2022-08-11T04:44:04.579Z,100382.97
2022-08-11T04:50:26.722Z,100387.91
2022-08-11T04:56:24.794Z,100388.53
2022-08-11T05:02:27.803Z,100390.72
2022-08-11T05:08:35.056Z,100397.75
2022-08-11T05:14:50.589Z,100403.50
2022-08-11T05:20:40.033Z,100394.22
2022-08-11T05:26:46.698Z,100397.19
2022-08-11T05:32:36.940Z,100392.75
2022-08-11T05:38:31.574Z,100410.13
2022-08-11T05:44:22.316Z,100403.41
2022-08-11T05:50:13.706Z,100406.38
2022-08-11T05:56:04.052Z,100420.09
2022-08-11T06:01:35.574Z,100411.56
2022-08-11T06:07:09.340Z,100418.28
2022-08-11T06:12:40.939Z,100412.19
2022-08-11T06:18:12.358Z,100423.75
2022-08-11T06:23:42.630Z,100425.50
2022-08-11T06:29:18.653Z,100424.34
2022-08-11T06:35:00.477Z,100438.19
2022-08-11T06:40:37.512Z,100436.91
2022-08-11T06:46:12.643Z,100444.13
2022-08-11T06:52:01.577Z,100454.13
2022-08-11T06:57:49.081Z,100454.78
2022-08-11T07:03:23.482Z,100464.75
2022-08-11T07:09:48.987Z,100456.56
2022-08-11T07:16:10.598Z,100474.38
2022-08-11T07:22:02.832Z,100489.53
2022-08-11T07:28:07.854Z,100484.78
2022-08-11T07:34:05.286Z,100477.97
2022-08-11T07:39:37.257Z,100471.34
2022-08-11T07:45:25.296Z,100473.94
2022-08-11T07:51:12.130Z,100468.66
2022-08-11T07:56:54.888Z,100468.72
2022-08-11T08:02:45.378Z,100466.13
2022-08-11T08:08:33.951Z,100479.53
2022-08-11T08:14:22.582Z,100470.91
2022-08-11T08:19:52.392Z,100464.59
2022-08-11T08:25:21.356Z,100465.28
2022-08-11T08:30:52.697Z,100463.66
2022-08-11T08:36:24.314Z,100457.13
2022-08-11T08:41:56.177Z,100457.09
2022-08-11T08:47:42.869Z,100453.66
2022-08-11T08:53:12.297Z,100445.72
2022-08-11T08:58:43.476Z,100449.09
2022-08-11T09:04:18.878Z,100447.41
2022-08-11T09:09:53.326Z,100437.31
2022-08-11T09:15:24.135Z,100443.38
2022-08-11T09:20:54.434Z,100434.41
2022-08-11T09:26:41.955Z,100434.75
2022-08-11T09:32:13.056Z,100432.78
2022-08-11T09:38:01.436Z,100434.84
2022-08-11T09:43:48.988Z,100430.53
2022-08-11T09:49:22.159Z,100428.19
2022-08-11T09:54:54.667Z,100423.28
2022-08-11T10:00:30.555Z,100420.44
2022-08-11T10:06:34.772Z,100419.59
2022-08-11T10:12:09.622Z,100419.16
2022-08-11T10:18:04.081Z,100424.22
2022-08-11T10:24:00.995Z,100419.50
2022-08-11T10:29:57.321Z,100417.75
2022-08-11T10:35:30.603Z,100404.00
2022-08-11T10:41:18.331Z,100418.47
2022-08-11T10:47:07.437Z,100407.28
2022-08-11T10:52:56.558Z,100408.00
2022-08-11T10:58:43.964Z,100406.66
2022-08-11T11:04:17.122Z,100408.81
2022-08-11T11:09:50.602Z,100407.53
2022-08-11T11:15:39.055Z,100409.06
2022-08-11T11:21:12.524Z,100414.03
2022-08-11T11:26:53.106Z,100417.59
2022-08-11T11:32:30.356Z,100425.59
2022-08-11T11:38:04.877Z,100436.75
2022-08-11T11:43:36.760Z,100437.34
2022-08-11T11:49:16.651Z,100441.81
2022-08-11T11:54:50.284Z,100438.44
2022-08-11T12:00:42.971Z,100434.84
2022-08-11T12:06:14.817Z,100431.50
2022-08-11T12:12:03.302Z,100430.94
2022-08-11T12:17:32.606Z,100434.38
2022-08-11T12:23:19.197Z,100432.63
2022-08-11T12:28:49.776Z,100430.91
2022-08-11T12:34:19.404Z,100427.91
2022-08-11T12:40:16.342Z,100413.63
2022-08-11T12:46:01.939Z,100420.03
2022-08-11T12:52:13.865Z,100415.16
2022-08-11T12:58:05.403Z,100401.31
2022-08-11T13:03:56.760Z,100409.50
2022-08-11T13:09:26.268Z,100393.78
2022-08-11T13:14:55.880Z,100399.09
2022-08-11T13:20:27.256Z,100411.13
2022-08-11T13:25:57.512Z,100405.59
2022-08-11T13:31:27.331Z,100399.91
2022-08-11T13:37:00.668Z,100395.06
2022-08-11T13:42:30.470Z,100395.00
2022-08-11T13:48:01.389Z,100383.81
2022-08-11T13:53:33.710Z,100390.88
2022-08-11T13:59:04.378Z,100386.66
2022-08-11T14:04:39.473Z,100388.78
2022-08-11T14:10:14.150Z,100384.59
2022-08-11T14:15:47.284Z,100366.94
2022-08-11T14:21:35.692Z,100361.66
2022-08-11T14:27:07.697Z,100354.16
2022-08-11T14:32:59.738Z,100362.59
2022-08-11T14:38:29.200Z,100357.97
2022-08-11T14:44:17.999Z,100348.00
2022-08-11T14:49:58.472Z,100348.72
2022-08-11T14:55:58.197Z,100333.38
2022-08-11T15:02:01.601Z,100331.31
2022-08-11T15:07:32.352Z,100319.88
2022-08-11T15:13:02.617Z,100323.97
2022-08-11T15:18:35.529Z,100318.25
2022-08-11T15:24:21.241Z,100337.06
2022-08-11T15:30:10.137Z,100324.22
2022-08-11T15:36:09.009Z,100328.63
2022-08-11T15:42:02.456Z,100324.06
2022-08-11T15:47:41.250Z,100332.44
2022-08-11T15:53:19.184Z,100324.88
2022-08-11T15:59:27.547Z,100328.84
2022-08-11T16:04:57.902Z,100342.81
2022-08-11T16:10:28.564Z,100347.63
2022-08-11T16:16:18.766Z,100356.88
2022-08-11T16:21:51.005Z,100359.31
2022-08-11T16:27:24.479Z,100367.50
2022-08-11T16:32:54.604Z,100365.34
2022-08-11T16:38:35.818Z,100377.75
2022-08-11T16:44:32.552Z,100378.13
2022-08-11T16:50:09.388Z,100393.69
2022-08-11T16:55:41.906Z,100398.78
2022-08-11T17:01:25.615Z,100404.13
2022-08-11T17:07:23.703Z,100406.84
2022-08-11T17:13:11.123Z,100409.75
2022-08-11T17:18:51.234Z,100407.19
2022-08-11T17:24:20.043Z,100402.66
2022-08-11T17:29:55.317Z,100409.50
2022-08-11T17:35:30.999Z,100406.78
2022-08-11T17:41:23.701Z,100404.44
2022-08-11T17:47:10.739Z,100404.53
2022-08-11T17:53:01.685Z,100395.88
2022-08-11T17:58:49.902Z,100385.97
2022-08-11T18:04:20.429Z,100375.50
2022-08-11T18:10:08.603Z,100374.69
2022-08-11T18:15:57.616Z,100373.25
2022-08-11T18:22:03.509Z,100382.31
2022-08-11T18:28:02.077Z,100387.44
2022-08-11T18:34:06.805Z,100398.00
2022-08-11T18:40:00.786Z,100418.97
2022-08-11T18:45:52.763Z,100424.72
2022-08-11T18:51:56.456Z,100428.66
2022-08-11T18:57:53.909Z,100401.81
2022-08-11T19:03:48.685Z,100409.94
2022-08-11T19:09:37.523Z,100408.44
2022-08-11T19:15:26.113Z,100391.81
2022-08-11T19:21:14.666Z,100424.25
2022-08-11T19:27:02.926Z,100418.56
2022-08-11T19:32:50.472Z,100413.97
2022-08-11T19:38:39.925Z,100410.16
2022-08-11T19:44:27.371Z,100404.25
2022-08-11T19:50:20.165Z,100390.16
2022-08-11T19:56:13.232Z,100401.97
2022-08-11T20:02:01.377Z,100399.69
2022-08-11T20:08:01.686Z,100408.91
2022-08-11T20:13:50.505Z,100416.94
2022-08-11T20:19:56.311Z,100413.69
2022-08-11T20:25:44.414Z,100409.25
2022-08-11T20:31:33.798Z,100412.03
2022-08-11T20:37:22.850Z,100413.38
2022-08-11T20:44:05.106Z,100416.00
2022-08-11T20:49:21.710Z,100405.34
2022-08-11T20:55:10.838Z,100404.41
2022-08-11T21:01:06.090Z,100391.28
2022-08-11T21:07:18.575Z,100403.91
2022-08-11T21:13:25.639Z,100403.09
2022-08-11T21:19:19.165Z,100404.56
2022-08-11T21:25:31.013Z,100398.84
2022-08-11T21:31:18.623Z,100389.72
2022-08-11T21:37:07.889Z,100408.06
2022-08-11T21:43:01.282Z,100414.81
2022-08-11T21:48:49.807Z,100413.66
2022-08-11T21:54:37.332Z,100417.28
2022-08-11T22:00:27.138Z,100425.69
2022-08-11T22:06:14.741Z,100419.13
2022-08-11T22:12:34.082Z,100404.88
2022-08-11T22:18:08.660Z,100404.88
2022-08-11T22:23:57.963Z,100405.88
2022-08-11T22:29:51.039Z,100413.22
2022-08-11T22:35:41.355Z,100415.69
2022-08-11T22:41:28.402Z,100414.53
2022-08-11T22:47:18.345Z,100415.00
2022-08-11T22:53:10.067Z,100396.19
2022-08-11T22:58:56.828Z,100400.13
2022-08-11T23:04:44.798Z,100400.78
2022-08-11T23:10:41.001Z,100405.88
2022-08-11T23:16:27.850Z,100415.84
2022-08-11T23:22:15.331Z,100405.69
2022-08-11T23:28:03.843Z,100415.69
2022-08-11T23:33:51.582Z,100439.91
2022-08-11T23:39:38.543Z,100462.84
2022-08-11T23:45:27.594Z,100465.59
2022-08-11T23:51:15.439Z,100450.69
2022-08-11T23:57:02.042Z,100436.06
